Time;durP1;ratioP1;P1;durP2;ratioP2;P2;SDS_P1;SDS_P2;PMS_P1;PMS_P2;Temp;Humidity;BMP_temperature;BMP_pressure;BME280_temperature;BME280_humidity;BME280_pressure;Samples;Min_cycle;Max_cycle;Signal;HPM_P1;HPM_P2
2022/04/04 00:00:39;;;;;;;;;30.00;28.67;;;;;21.10;22.19;101778.34;5054845;28;45304;-79
2022/04/04 00:03:05;;;;;;;;;32.33;30.67;;;;;21.34;22.25;101806.94;5054572;28;45467;-79
2022/04/04 00:05:30;;;;;;;;;32.67;27.67;;;;;21.39;22.16;101805.97;5054691;28;45414;-79
2022/04/04 00:07:56;;;;;;;;;32.00;30.33;;;;;21.44;22.43;101796.94;5054595;28;45408;-80
2022/04/04 00:10:21;;;;;;;;;31.67;27.00;;;;;21.32;22.54;101785.34;5054739;28;45536;-79
2022/04/04 00:12:47;;;;;;;;;27.00;26.00;;;;;21.32;22.60;101770.94;5054402;28;45396;-80
2022/04/04 00:15:12;;;;;;;;;37.67;31.00;;;;;21.45;22.52;101809.50;5054287;28;46210;-80
2022/04/04 00:17:37;;;;;;;;;33.00;32.67;;;;;21.02;22.72;101727.16;5056676;28;45393;-80
2022/04/04 00:20:04;;;;;;;;;34.33;31.67;;;;;21.45;22.67;101814.91;5057905;28;45361;-80
2022/04/04 00:22:30;;;;;;;;;33.33;27.00;;;;;20.79;23.03;101736.31;5058119;28;45509;-80
2022/04/04 00:24:55;;;;;;;;;29.33;27.33;;;;;21.10;23.07;101791.84;5057711;28;46030;-80
2022/04/04 00:27:20;;;;;;;;;30.67;27.33;;;;;21.06;23.37;101801.75;5057457;28;45253;-80
2022/04/04 00:29:46;;;;;;;;;36.33;30.67;;;;;20.69;23.61;101804.72;5058185;28;45347;-80
2022/04/04 00:32:11;;;;;;;;;25.33;21.00;;;;;20.63;23.55;101796.63;5057721;28;45379;-80
2022/04/04 00:34:37;;;;;;;;;30.33;30.00;;;;;20.97;23.03;101799.13;5057793;28;47378;-80
2022/04/04 00:37:03;;;;;;;;;30.33;25.33;;;;;20.88;23.07;101760.50;5056434;28;45426;-79
2022/04/04 00:39:28;;;;;;;;;29.33;28.00;;;;;21.25;22.66;101795.31;5057656;28;45501;-79
2022/04/04 00:41:53;;;;;;;;;31.00;28.67;;;;;21.33;22.78;101784.41;5056343;28;45364;-79
2022/04/04 00:44:19;;;;;;;;;32.33;29.33;;;;;21.36;22.75;101789.81;5057492;28;45538;-80
2022/04/04 00:46:44;;;;;;;;;27.67;24.33;;;;;21.45;22.69;101782.50;5057460;28;45437;-80
2022/04/04 00:49:10;;;;;;;;;32.00;30.00;;;;;21.47;22.96;101781.59;5057708;28;45384;-79
2022/04/04 00:51:37;;;;;;;;;30.33;29.67;;;;;21.49;22.94;101779.78;5057762;28;45376;-80
2022/04/04 00:54:03;;;;;;;;;30.67;30.67;;;;;21.46;23.03;101789.72;5057405;28;46260;-80
2022/04/04 00:56:32;;;;;;;;;32.00;28.67;;;;;21.46;22.54;101796.03;5056967;28;45446;-79
2022/04/04 00:58:58;;;;;;;;;32.00;28.67;;;;;21.45;22.75;101778.03;5057495;28;45432;-80
2022/04/04 01:01:23;;;;;;;;;26.67;25.00;;;;;21.50;22.79;101781.56;5057179;28;45316;-80
2022/04/04 01:03:50;;;;;;;;;30.33;26.67;;;;;21.46;22.78;101770.81;5057362;28;46138;-80
2022/04/04 01:06:16;;;;;;;;;26.67;24.67;;;;;21.31;22.78;101756.56;5057041;28;45506;-80
2022/04/04 01:08:41;;;;;;;;;29.00;26.67;;;;;20.55;22.91;101626.84;5057425;28;45388;-79
2022/04/04 01:11:08;;;;;;;;;29.67;29.00;;;;;21.27;22.86;101767.41;5057078;28;45477;-79
2022/04/04 01:13:33;;;;;;;;;17.00;16.67;;;;;21.30;22.84;101772.78;5057086;28;45585;-80
2022/04/04 01:15:58;;;;;;;;;22.00;19.33;;;;;21.11;22.69;101729.78;5056840;28;45447;-80
2022/04/04 01:18:24;;;;;;;;;19.33;19.33;;;;;21.24;22.82;101766.50;5057186;28;45326;-80
2022/04/04 01:20:50;;;;;;;;;22.33;17.33;;;;;21.19;22.42;101765.66;5057272;28;45373;-79
2022/04/04 01:23:22;;;;;;;;;21.67;18.67;;;;;21.23;22.89;101772.81;5056671;28;46247;-80
2022/04/04 01:25:48;;;;;;;;;31.67;28.00;;;;;20.34;23.15;101618.00;5056866;28;45340;-80
2022/04/04 01:28:14;;;;;;;;;22.33;21.67;;;;;21.05;23.18;101755.00;5056113;28;45432;-79
2022/04/04 01:30:40;;;;;;;;;24.00;22.67;;;;;20.75;23.42;101717.50;5055603;28;45337;-79
2022/04/04 01:33:05;;;;;;;;;22.00;18.00;;;;;20.71;23.58;101762.44;5056993;28;46149;-80
2022/04/04 01:35:31;;;;;;;;;22.00;22.00;;;;;20.42;24.02;101712.31;5056464;28;45368;-80
2022/04/04 01:37:56;;;;;;;;;24.00;20.00;;;;;20.29;23.84;101703.38;5057163;28;45367;-80
2022/04/04 01:40:22;;;;;;;;;23.00;22.00;;;;;20.76;23.65;101754.31;5056193;28;45388;-79
2022/04/04 01:42:53;;;;;;;;;26.00;24.67;;;;;20.85;23.82;101759.66;5056803;28;45304;-79
2022/04/04 01:46:23;;;;;;;;;25.67;22.00;;;;;20.76;23.84;101749.84;5056472;28;45518;-79
2022/04/04 01:48:05;;;;;;;;;18.67;17.33;;;;;20.86;23.47;101750.66;5056479;28;45337;-79
2022/04/04 01:50:30;;;;;;;;;18.33;18.33;;;;;20.64;23.42;101704.06;5056463;28;45324;-78
2022/04/04 01:53:25;;;;;;;;;21.00;19.33;;;;;20.92;23.28;101752.41;5056137;28;45447;-79
2022/04/04 01:55:44;;;;;;;;;20.33;18.00;;;;;20.90;23.26;101729.03;5056422;28;45375;-78
2022/04/04 01:58:09;;;;;;;;;16.00;14.33;;;;;20.85;23.38;101741.66;5056379;28;45821;-78
2022/04/04 02:00:34;;;;;;;;;16.00;16.00;;;;;20.58;23.28;101707.69;5056502;28;45500;-79
2022/04/04 02:03:00;;;;;;;;;16.67;14.33;;;;;20.61;23.20;101701.38;5056458;28;46630;-78
2022/04/04 02:05:25;;;;;;;;;10.33;9.33;;;;;20.90;23.18;101741.66;5056231;28;45487;-78
2022/04/04 02:07:50;;;;;;;;;14.33;14.33;;;;;20.85;23.34;101740.78;5056372;28;45406;-79
2022/04/04 02:10:16;;;;;;;;;15.67;14.00;;;;;20.86;23.15;101735.38;5056165;28;45415;-79
2022/04/04 02:12:42;;;;;;;;;13.00;13.00;;;;;20.75;23.18;101726.47;5056137;28;46239;-79
2022/04/04 02:15:07;;;;;;;;;9.33;9.33;;;;;20.15;22.97;101663.03;5056319;28;45867;-79
2022/04/04 02:17:33;;;;;;;;;11.33;11.33;;;;;20.47;23.28;101725.75;5056232;28;45556;-79
2022/04/04 02:19:58;;;;;;;;;12.67;11.00;;;;;20.16;23.08;101732.19;5056128;28;45478;-79
2022/04/04 02:22:23;;;;;;;;;9.33;7.67;;;;;19.91;23.17;101665.91;5055705;28;46139;-79
2022/04/04 02:24:48;;;;;;;;;11.33;11.33;;;;;20.09;23.43;101732.25;5055963;28;45458;-79
2022/04/04 02:27:14;;;;;;;;;13.33;12.33;;;;;19.77;23.89;101672.19;5056216;28;45388;-79
2022/04/04 02:29:39;;;;;;;;;20.67;16.00;;;;;20.08;24.10;101712.47;5056025;28;45384;-79
2022/04/04 02:32:05;;;;;;;;;15.00;15.00;;;;;20.28;23.81;101723.16;5056005;28;46569;-79
2022/04/04 02:34:30;;;;;;;;;14.67;13.33;;;;;20.37;23.63;101720.41;5055997;28;45630;-79
2022/04/04 02:36:56;;;;;;;;;16.33;15.00;;;;;20.26;23.91;101699.81;5055702;28;45389;-79
2022/04/04 02:39:21;;;;;;;;;21.00;16.67;;;;;20.49;23.58;101711.34;5055565;28;45392;-78
2022/04/04 02:41:46;;;;;;;;;17.00;15.00;;;;;20.40;23.13;101671.84;5055901;28;45259;-79
2022/04/04 02:44:12;;;;;;;;;21.00;17.00;;;;;20.54;23.18;101685.25;5055717;28;45536;-79
2022/04/04 02:46:37;;;;;;;;;15.00;12.33;;;;;20.54;23.53;101712.19;5055848;28;45339;-79
2022/04/04 02:49:02;;;;;;;;;13.33;11.67;;;;;20.53;23.26;101702.34;5056006;28;45373;-79
2022/04/04 02:51:28;;;;;;;;;13.33;13.33;;;;;20.25;23.32;101652.22;5055063;28;46190;-79
2022/04/04 02:53:54;;;;;;;;;15.00;14.00;;;;;19.97;23.62;101673.94;5055794;28;45420;-79
2022/04/04 02:56:31;;;;;;;;;17.33;12.33;;;;;20.19;23.51;101716.00;5055555;28;45310;-80
2022/04/04 02:59:05;;;;;;;;;16.33;16.00;;;;;19.77;23.90;101649.78;5055842;28;45484;-79
2022/04/04 03:01:31;;;;;;;;;15.67;15.00;;;;;19.91;24.27;101720.63;5055169;28;45407;-79
2022/04/04 03:03:58;;;;;;;;;18.67;16.33;;;;;19.74;24.12;101664.13;5054139;28;45346;-79
2022/04/04 03:06:23;;;;;;;;;17.67;17.67;;;;;20.03;23.69;101688.28;5054045;28;45464;-79
2022/04/04 03:08:49;;;;;;;;;15.00;14.00;;;;;19.83;24.28;101664.13;5055365;28;45476;-78
2022/04/04 03:11:15;;;;;;;;;16.33;15.00;;;;;19.79;24.11;101656.97;5055638;28;45481;-79
2022/04/04 03:13:40;;;;;;;;;19.00;14.00;;;;;20.19;23.98;101705.22;5055331;28;45425;-80
2022/04/04 03:16:06;;;;;;;;;19.33;17.00;;;;;20.21;23.87;101664.84;5055504;28;45322;-80
2022/04/04 03:18:33;;;;;;;;;15.67;12.67;;;;;20.37;23.41;101666.50;5055321;28;45403;-80
2022/04/04 03:20:59;;;;;;;;;14.67;14.67;;;;;20.54;23.41;101673.56;5055037;28;46339;-80
2022/04/04 03:23:27;;;;;;;;;20.33;20.33;;;;;20.55;23.13;101662.78;5054947;28;45447;-80
2022/04/04 03:25:52;;;;;;;;;18.67;18.33;;;;;20.67;23.23;101667.19;5055472;28;45508;-79
2022/04/04 03:28:17;;;;;;;;;16.67;15.00;;;;;20.47;23.70;101674.53;5055223;28;45497;-78
2022/04/04 03:30:43;;;;;;;;;14.00;14.00;;;;;20.35;23.41;101670.09;5054921;28;46608;-79
2022/04/04 03:33:08;;;;;;;;;18.67;14.67;;;;;20.44;23.30;101680.84;5055184;28;45396;-79
2022/04/04 03:35:34;;;;;;;;;15.67;15.00;;;;;20.60;23.25;101689.69;5054666;28;45497;-79
2022/04/04 03:38:01;;;;;;;;;15.33;14.67;;;;;20.06;23.58;101590.38;5055236;28;45529;-78
2022/04/04 03:40:28;;;;;;;;;19.33;16.00;;;;;20.35;23.83;101681.81;5054801;28;45470;-78
2022/04/04 03:42:56;;;;;;;;;16.00;15.67;;;;;20.28;23.61;101645.03;5054813;28;45354;-78
2022/04/04 03:45:22;;;;;;;;;16.00;15.00;;;;;20.49;23.50;101668.22;5053489;28;45473;-79
2022/04/04 03:47:48;;;;;;;;;14.67;14.33;;;;;20.48;23.74;101677.22;5055075;28;45383;-78
2022/04/04 03:50:14;;;;;;;;;16.67;16.67;;;;;20.23;23.97;101668.41;5054624;28;46424;-78
2022/04/04 03:52:41;;;;;;;;;17.00;13.67;;;;;20.42;23.58;101679.97;5056839;28;45383;-78
2022/04/04 03:55:09;;;;;;;;;17.00;14.67;;;;;20.38;23.70;101648.53;5058783;28;45459;-78
2022/04/04 03:57:35;;;;;;;;;16.67;16.33;;;;;20.49;23.52;101651.13;5058116;28;45401;-79
2022/04/04 04:00:00;;;;;;;;;19.67;19.67;;;;;20.09;23.53;101584.97;5058237;28;45354;-80
2022/04/04 04:02:25;;;;;;;;;20.00;18.33;;;;;19.98;24.04;101627.25;5058235;28;45510;-80
2022/04/04 04:04:51;;;;;;;;;22.33;19.00;;;;;20.02;24.47;101664.91;5058077;28;45409;-79
2022/04/04 04:07:18;;;;;;;;;26.00;24.00;;;;;20.05;23.96;101661.31;5058478;28;45425;-79
2022/04/04 04:09:44;;;;;;;;;25.67;25.67;;;;;19.90;24.25;101615.63;5058092;28;46217;-79
2022/04/04 04:12:11;;;;;;;;;22.00;18.33;;;;;20.26;23.85;101656.72;5057953;28;45391;-79
2022/04/04 04:14:37;;;;;;;;;26.00;22.33;;;;;20.00;23.82;101606.56;5058038;28;45265;-79
2022/04/04 04:17:03;;;;;;;;;25.67;21.67;;;;;19.96;24.47;101659.59;5058039;28;45349;-77
2022/04/04 04:22:13;;;;;;;;;29.33;29.00;;;;;19.67;25.03;101647.09;5058062;28;45474;-78
2022/04/04 04:24:39;;;;;;;;;32.33;25.33;;;;;19.60;24.48;101625.63;5057590;28;45509;-78
2022/04/04 04:27:04;;;;;;;;;27.67;26.33;;;;;19.58;24.98;101627.41;5058271;28;45504;-78
2022/04/04 04:29:29;;;;;;;;;21.67;21.67;;;;;19.64;25.01;101644.44;5057777;28;45923;-77
2022/04/04 04:31:55;;;;;;;;;28.33;25.67;;;;;19.55;24.86;101628.34;5057533;28;56179;-78
2022/04/04 04:34:20;;;;;;;;;31.67;26.00;;;;;19.39;24.62;101570.09;5057692;28;45494;-78
2022/04/04 04:36:45;;;;;;;;;23.67;23.67;;;;;19.90;24.57;101643.47;5057748;28;45198;-78
2022/04/04 04:39:11;;;;;;;;;29.33;25.00;;;;;19.45;24.99;101580.81;5057919;28;45448;-77
2022/04/04 04:41:36;;;;;;;;;28.67;25.00;;;;;19.52;24.97;101598.72;5057512;28;45504;-77
2022/04/04 04:44:03;;;;;;;;;27.00;24.00;;;;;19.65;25.09;101638.16;5057754;28;45483;-78
2022/04/04 04:46:31;;;;;;;;;30.33;28.33;;;;;19.81;24.73;101633.63;5057567;28;45589;-78
2022/04/04 04:48:57;;;;;;;;;29.00;26.33;;;;;19.60;25.23;101625.63;5057107;28;46673;-78
2022/04/04 04:51:22;;;;;;;;;31.33;27.00;;;;;18.93;25.33;101544.25;5073165;28;45953;-78
2022/04/04 04:53:48;;;;;;;;;31.33;29.00;;;;;19.44;25.42;101628.38;5057526;28;45376;-78
2022/04/04 04:56:14;;;;;;;;;29.00;28.67;;;;;19.60;25.01;101629.19;5057646;28;45486;-78
2022/04/04 04:58:39;;;;;;;;;31.33;29.33;;;;;19.18;24.92;101567.50;5075569;28;45370;-80
2022/04/04 05:01:04;;;;;;;;;37.50;36.25;;;;;18.94;25.34;101591.75;5072459;27;45407;-78
2022/04/04 05:03:30;;;;;;;;;29.33;28.00;;;;;18.44;26.52;101640.16;5088470;27;45524;-81
2022/04/04 05:05:55;;;;;;;;;28.00;26.00;;;;;18.34;26.52;101633.00;5057367;28;45408;-79
2022/04/04 05:08:21;;;;;;;;;28.33;25.67;;;;;17.59;26.71;101515.59;5077538;27;45537;-79
2022/04/04 05:10:47;;;;;;;;;30.00;24.00;;;;;18.23;26.81;101621.34;5046375;27;45475;-79
2022/04/04 05:13:13;;;;;;;;;25.67;24.67;;;;;18.32;26.55;101635.66;5045289;28;45439;-80
2022/04/04 05:15:39;;;;;;;;;30.33;28.67;;;;;18.25;26.42;101633.84;5069484;28;45585;-79
2022/04/04 05:18:05;;;;;;;;;19.00;19.00;;;;;17.97;26.99;101607.00;5075154;27;46275;-79
2022/04/04 05:20:30;;;;;;;;;27.67;24.67;;;;;18.07;26.68;101599.84;5058951;27;45527;-80
2022/04/04 05:22:57;;;;;;;;;35.00;27.67;;;;;17.89;26.48;101595.31;5061281;28;45321;-79
2022/04/04 05:25:23;;;;;;;;;33.67;28.00;;;;;18.14;26.72;101630.25;5059287;28;45538;-80
2022/04/04 05:27:50;;;;;;;;;27.33;27.00;;;;;18.17;26.87;101631.19;5054804;28;46963;-79
2022/04/04 05:30:16;;;;;;;;;29.00;24.00;;;;;18.19;26.61;101619.56;5056806;28;45281;-79
2022/04/04 05:32:43;;;;;;;;;34.50;32.00;;;;;17.61;26.79;101578.22;5055973;28;45360;-78
2022/04/04 05:35:12;;;;;;;;;35.67;31.67;;;;;17.73;27.24;101631.03;5056813;28;45380;-78
2022/04/04 05:37:38;;;;;;;;;30.67;26.00;;;;;17.43;27.36;101596.03;5056379;28;45509;-78
2022/04/04 05:40:04;;;;;;;;;25.67;24.00;;;;;16.31;27.37;101390.00;5056448;28;45565;-78
2022/04/04 05:42:30;;;;;;;;;32.00;27.67;;;;;17.25;27.33;101579.88;5057066;28;45514;-76
2022/04/04 05:44:56;;;;;;;;;33.75;33.75;;;;;17.64;27.57;101627.41;5055961;28;45384;-78
2022/04/04 05:47:21;;;;;;;;;31.33;27.00;;;;;16.85;27.44;101517.97;5056664;28;46324;-78
2022/04/04 05:49:50;;;;;;;;;34.67;31.33;;;;;17.61;27.18;101631.91;5056133;28;49790;-78
2022/04/04 05:52:16;;;;;;;;;33.00;31.50;;;;;17.63;27.23;101627.41;5056619;28;45278;-78
2022/04/04 05:54:54;;;;;;;;;38.00;33.75;;;;;17.56;27.46;101617.56;5056448;28;45724;-79
2022/04/04 05:57:28;;;;;;;;;30.75;29.50;;;;;17.55;27.40;101622.03;5056179;28;45498;-80
2022/04/04 05:59:54;;;;;;;;;33.25;28.75;;;;;17.05;27.54;101540.44;5055927;28;45431;-79
2022/04/04 06:02:20;;;;;;;;;38.25;35.00;;;;;17.61;27.45;101627.41;5055174;28;45379;-79
2022/04/04 06:04:45;;;;;;;;;29.50;27.75;;;;;17.65;27.35;101620.28;5056287;28;45328;-79
2022/04/04 06:07:11;;;;;;;;;35.00;33.25;;;;;17.66;27.62;101624.75;5056134;28;45364;-79
2022/04/04 06:09:36;;;;;;;;;39.50;37.75;;;;;17.80;27.21;101614.94;5055926;28;45395;-80
2022/04/04 06:12:03;;;;;;;;;33.00;29.00;;;;;17.56;27.13;101582.69;5056146;28;45470;-80
2022/04/04 06:14:28;;;;;;;;;36.67;30.33;;;;;17.80;27.21;101622.09;5055608;28;45335;-81
2022/04/04 06:16:54;;;;;;;;;29.50;27.00;;;;;17.75;27.13;101619.41;5055615;28;45738;-82
2022/04/04 06:19:19;;;;;;;;;29.00;28.00;;;;;17.74;27.26;101619.41;5054757;28;45364;-81
2022/04/04 06:21:45;;;;;;;;;37.50;33.25;;;;;17.61;27.17;101588.97;5055897;28;45405;-81
2022/04/04 06:24:10;;;;;;;;;32.50;29.25;;;;;17.62;27.33;101621.16;5056170;28;45373;-83
2022/04/04 06:26:36;;;;;;;;;36.50;32.25;;;;;17.52;27.19;101541.50;5055801;28;48592;-79
2022/04/04 06:29:02;;;;;;;;;37.75;35.50;;;;;17.41;27.08;101529.84;5055672;28;45460;-81
2022/04/04 06:31:27;;;;;;;;;40.50;36.75;;;;;17.75;26.84;101606.00;5055815;28;45365;-78
2022/04/04 06:33:52;;;;;;;;;31.00;27.00;;;;;17.95;27.03;101613.25;5055559;28;45440;-78
2022/04/04 06:36:17;;;;;;;;;42.50;38.75;;;;;17.77;27.07;101604.19;5055879;28;45380;-78
2022/04/04 06:38:43;;;;;;;;;33.75;30.75;;;;;17.59;27.26;101604.16;5055763;28;45523;-78
2022/04/04 06:41:08;;;;;;;;;41.50;38.50;;;;;17.59;27.23;101586.25;5055712;28;45455;-79
2022/04/04 06:43:34;;;;;;;;;47.25;38.75;;;;;17.84;27.30;101611.38;5055306;28;45595;-78
2022/04/04 06:46:00;;;;;;;;;42.00;36.00;;;;;18.07;26.90;101605.22;5055584;28;45384;-78
2022/04/04 06:48:25;;;;;;;;;36.50;35.00;;;;;18.23;26.79;101613.28;5055802;28;45406;-78
2022/04/04 06:50:50;;;;;;;;;36.25;33.75;;;;;18.25;26.43;101598.06;5055443;28;45329;-78
2022/04/04 06:53:16;;;;;;;;;36.25;31.75;;;;;17.62;26.46;101556.75;5055774;28;45458;-78
2022/04/04 06:55:44;;;;;;;;;47.50;40.25;;;;;17.77;26.45;101561.25;5055265;28;45565;-78
2022/04/04 06:58:09;;;;;;;;;30.50;30.50;;;;;18.13;26.33;101583.72;5055095;28;45553;-78
2022/04/04 07:00:35;;;;;;;;;39.50;34.75;;;;;18.50;26.41;101604.34;5055526;28;45563;-78
2022/04/04 07:03:01;;;;;;;;;38.50;34.50;;;;;18.24;26.42;101596.25;5055375;28;45385;-78
2022/04/04 07:05:27;;;;;;;;;37.00;35.50;;;;;18.69;25.92;101603.44;5055526;28;45571;-78
2022/04/04 07:07:52;;;;;;;;;38.00;36.75;;;;;18.59;25.70;101549.69;5054935;28;45502;-78
2022/04/04 07:10:18;;;;;;;;;38.00;34.25;;;;;18.95;25.26;101594.44;5055395;28;45519;-78
2022/04/04 07:12:43;;;;;;;;;36.00;33.75;;;;;18.50;25.21;101531.78;5055054;28;45491;-78
2022/04/04 07:15:12;;;;;;;;;33.00;31.33;;;;;18.88;25.21;101583.72;5055269;28;45335;-78
2022/04/04 07:17:39;;;;;;;;;33.50;29.75;;;;;18.66;25.35;101594.47;5055044;28;45325;-78
2022/04/04 07:20:06;;;;;;;;;25.67;23.33;;;;;18.62;25.55;101549.66;5055033;28;45479;-78
2022/04/04 07:22:39;;;;;;;;;33.00;30.67;;;;;18.98;25.10;101586.38;5055272;28;45274;-78
2022/04/04 07:25:07;;;;;;;;;37.00;33.67;;;;;18.59;24.91;101539.84;5054897;28;46546;-78
2022/04/04 07:27:33;;;;;;;;;27.33;22.00;;;;;18.17;24.84;101506.72;5053737;28;45440;-78
2022/04/04 07:29:58;;;;;;;;;28.00;25.67;;;;;18.84;24.67;101580.09;5054855;28;45194;-78
2022/04/04 07:32:24;;;;;;;;;25.67;24.33;;;;;19.11;24.70;101573.81;5055134;28;45225;-78
2022/04/04 07:34:49;;;;;;;;;19.00;19.00;;;;;19.33;24.06;101568.34;5054692;28;46545;-78
2022/04/04 07:37:14;;;;;;;;;28.33;24.00;;;;;18.89;24.23;101570.28;5054958;28;45297;-78
2022/04/04 07:39:40;;;;;;;;;24.33;23.33;;;;;18.75;23.98;101551.44;5054943;28;45471;-78
2022/04/04 07:42:06;;;;;;;;;27.33;23.33;;;;;18.54;24.33;101527.28;5054430;28;45212;-78
2022/04/04 07:44:31;;;;;;;;;30.00;28.00;;;;;18.28;24.17;101517.47;5054984;28;46541;-78
2022/04/04 07:46:57;;;;;;;;;23.33;20.67;;;;;18.88;23.80;101562.22;5054686;28;45516;-77
2022/04/04 07:49:23;;;;;;;;;30.00;27.67;;;;;18.71;23.86;101521.91;5055022;28;45415;-77
2022/04/04 07:51:48;;;;;;;;;23.33;20.33;;;;;18.84;23.46;101469.88;5054853;28;45620;-77
2022/04/04 07:54:14;;;;;;;;;24.33;22.00;;;;;19.53;23.52;101554.78;5054400;28;45939;-78
2022/04/04 07:56:40;;;;;;;;;18.67;16.33;;;;;19.52;23.11;101507.22;5054431;28;45385;-77
2022/04/04 07:59:05;;;;;;;;;20.33;20.33;;;;;19.67;22.98;101511.63;5054793;28;45410;-78
2022/04/04 08:01:31;;;;;;;;;21.67;21.67;;;;;19.76;22.85;101541.19;5054717;28;45349;-77
2022/04/04 08:03:56;;;;;;;;;19.67;19.67;;;;;19.74;22.54;101523.25;5054501;28;45915;-77
2022/04/04 08:06:21;;;;;;;;;18.00;17.33;;;;;19.51;22.80;101511.72;5054824;28;45361;-78
2022/04/04 08:08:47;;;;;;;;;7.33;6.33;;;;;19.20;21.38;101502.94;5054756;28;45326;-77
2022/04/04 08:11:12;;;;;;;;;10.00;7.33;;;;;18.80;21.75;101535.31;5054120;28;45419;-77
2022/04/04 08:13:43;;;;;;;;;5.00;5.00;;;;;18.94;21.90;101529.91;5054707;28;45405;-78
2022/04/04 08:16:09;;;;;;;;;7.67;7.00;;;;;18.60;22.32;101525.47;5054292;28;45465;-77
2022/04/04 08:18:34;;;;;;;;;7.00;7.00;;;;;18.36;22.25;101526.44;5054752;28;45423;-77
2022/04/04 08:20:59;;;;;;;;;6.00;5.00;;;;;18.41;21.89;101513.88;5054218;28;45601;-77
2022/04/04 08:23:29;;;;;;;;;5.67;5.67;;;;;18.58;22.03;101521.91;5054155;28;45421;-77
2022/04/04 08:25:57;;;;;;;;;8.67;7.67;;;;;18.55;22.21;101502.22;5054065;28;45405;-77
2022/04/04 08:28:23;;;;;;;;;8.00;8.00;;;;;18.88;21.84;101478.88;5054683;28;45404;-78
2022/04/04 08:30:50;;;;;;;;;6.00;6.00;;;;;19.07;20.93;101499.41;5054361;28;45577;-78
2022/04/04 08:33:16;;;;;;;;;4.00;4.00;;;;;19.06;21.35;101499.38;5054298;28;46050;-78
2022/04/04 08:35:41;;;;;;;;;5.00;5.00;;;;;18.97;21.56;101506.63;5054403;28;45480;-78
2022/04/04 08:38:08;;;;;;;;;8.00;6.00;;;;;18.70;21.37;101459.16;5055375;28;45531;-78
2022/04/04 08:40:35;;;;;;;;;5.67;5.67;;;;;18.50;21.30;101465.50;5057361;28;45421;-77
2022/04/04 08:43:02;;;;;;;;;5.33;3.00;;;;;18.59;21.54;101486.09;5057727;28;46461;-78
2022/04/04 08:45:27;;;;;;;;;5.00;3.00;;;;;17.96;21.57;101499.56;5056291;28;45695;-77
2022/04/04 08:47:55;;;;;;;;;3.00;2.33;;;;;18.23;21.56;101489.75;5057701;28;45442;-77
2022/04/04 08:50:20;;;;;;;;;5.33;5.33;;;;;18.38;21.51;101488.81;5057769;28;45440;-77
2022/04/04 08:52:47;;;;;;;;;5.33;5.00;;;;;17.90;21.59;101433.31;5057321;28;45511;-77
2022/04/04 08:55:15;;;;;;;;;4.33;4.33;;;;;18.66;20.88;101487.88;5056964;28;45519;-78
2022/04/04 08:57:41;;;;;;;;;3.00;3.00;;;;;18.71;21.38;101478.91;5057671;28;45421;-78
2022/04/04 09:00:09;;;;;;;;;3.00;3.00;;;;;18.76;21.36;101472.59;5057210;28;45335;-78
2022/04/04 09:02:35;;;;;;;;;4.33;4.33;;;;;18.77;21.42;101484.25;5057285;28;45495;-78
2022/04/04 09:05:05;;;;;;;;;6.00;6.00;;;;;17.87;21.78;101448.53;5057336;28;45381;-78
2022/04/04 09:07:30;;;;;;;;;3.00;3.00;;;;;17.65;21.98;101441.38;5057558;28;45462;-78
2022/04/04 09:09:56;;;;;;;;;2.67;2.67;;;;;18.88;21.27;101468.13;5057000;28;45298;-77
2022/04/04 09:12:23;;;;;;;;;6.00;4.67;;;;;18.61;21.70;101484.28;5057236;28;46022;-79
2022/04/04 09:14:58;;;;;;;;;6.33;4.33;;;;;19.11;21.64;101446.47;5057322;28;45476;-78
2022/04/04 09:17:32;;;;;;;;;6.33;6.00;;;;;19.37;21.13;101443.66;5056981;28;45301;-78
2022/04/04 09:19:58;;;;;;;;;3.00;1.33;;;;;19.10;21.39;101468.88;5056962;28;45606;-78
2022/04/04 09:22:25;;;;;;;;;3.00;3.00;;;;;19.70;20.87;101468.53;5057041;28;45437;-77
2022/04/04 09:24:52;;;;;;;;;2.33;2.33;;;;;19.26;21.03;101464.34;5056804;28;45543;-77
2022/04/04 09:27:23;;;;;;;;;3.67;3.67;;;;;19.29;21.15;101462.50;5056894;28;45370;-77
2022/04/04 09:29:57;;;;;;;;;6.00;6.00;;;;;19.02;21.70;101460.88;5057212;28;45542;-77
2022/04/04 09:32:34;;;;;;;;;5.33;5.33;;;;;18.68;22.20;101420.66;5057052;28;46288;-78
2022/04/04 09:35:08;;;;;;;;;5.33;4.33;;;;;19.75;21.17;101434.41;5056736;28;45309;-78
2022/04/04 09:37:34;;;;;;;;;6.00;6.00;;;;;19.43;21.77;101407.72;5056534;28;45423;-78
2022/04/04 09:40:05;;;;;;;;;3.00;3.00;;;;;19.19;20.35;101436.56;5056646;28;45515;-78
2022/04/04 09:42:32;;;;;;;;;4.00;4.00;;;;;19.55;20.92;101426.47;5056750;28;45280;-77
2022/04/04 09:45:06;;;;;;;;;7.00;6.00;;;;;19.88;20.85;101429.81;5056687;28;45429;-78
2022/04/04 09:48:08;;;;;;;;;4.00;3.00;;;;;20.77;19.51;101421.72;5056706;28;45434;-78
2022/04/04 09:50:45;;;;;;;;;3.67;3.67;;;;;20.35;20.00;101425.78;4993924;28;45484;-77
2022/04/04 09:53:19;;;;;;;;;6.00;4.00;;;;;20.27;20.13;101421.38;4993944;28;46116;-78
2022/04/04 09:56:00;;;;;;;;;3.00;3.00;;;;;20.09;19.71;101401.78;4994523;28;45391;-77
2022/04/04 09:58:31;;;;;;;;;2.33;1.33;;;;;20.20;19.98;101412.47;4994723;28;45442;-78
2022/04/04 10:00:58;;;;;;;;;7.00;4.00;;;;;20.23;19.85;101405.22;4994216;28;45455;-78
2022/04/04 10:03:24;;;;;;;;;4.00;2.00;;;;;19.78;20.02;101348.19;4994294;28;45909;-78
2022/04/04 10:05:55;;;;;;;;;4.00;4.00;;;;;20.29;19.96;101403.38;4994049;28;45468;-78
2022/04/04 10:08:24;;;;;;;;;7.00;4.67;;;;;19.78;19.80;101377.81;4994117;28;45411;-77
2022/04/04 10:10:50;;;;;;;;;2.67;2.67;;;;;19.98;19.89;101401.00;4994349;28;45502;-78
2022/04/04 10:13:16;;;;;;;;;2.00;2.00;;;;;19.80;19.80;101389.53;4993750;28;46198;-78
2022/04/04 10:15:43;;;;;;;;;3.67;3.67;;;;;20.03;19.53;101381.19;4994432;28;45944;-78
2022/04/04 10:18:09;;;;;;;;;4.00;4.00;;;;;20.44;18.97;101380.78;4993932;28;45439;-77
2022/04/04 10:20:35;;;;;;;;;2.33;2.33;;;;;20.60;19.00;101386.84;4993934;28;45446;-77
2022/04/04 10:23:04;;;;;;;;;1.00;1.00;;;;;20.51;19.02;101380.66;4993693;28;46486;-78
2022/04/04 10:25:32;;;;;;;;;4.33;4.00;;;;;19.44;19.77;101315.34;5009909;28;45577;-78
2022/04/04 10:27:59;;;;;;;;;4.67;3.33;;;;;20.17;19.33;101334.38;5056102;28;45504;-79
2022/04/04 10:30:39;;;;;;;;;3.33;3.33;;;;;21.30;18.93;101363.41;5056117;28;45330;-79
2022/04/04 10:33:18;;;;;;;;;6.00;6.00;;;;;21.31;19.06;101377.81;5056007;28;46205;-79
2022/04/04 10:35:58;;;;;;;;;6.00;4.00;;;;;20.77;18.77;101374.06;5055869;28;45436;-79
2022/04/04 10:38:32;;;;;;;;;4.00;4.00;;;;;20.49;18.52;101347.47;5056005;28;45400;-79
2022/04/04 10:41:00;;;;;;;;;3.67;3.67;;;;;21.10;18.56;101320.56;5055710;28;45400;-81
2022/04/04 10:43:31;;;;;;;;;3.00;3.00;;;;;21.65;18.27;101342.19;5055645;28;45482;-81
2022/04/04 10:46:02;;;;;;;;;3.00;2.00;;;;;20.57;18.76;101341.97;5054430;28;45838;-81
2022/04/04 10:48:31;;;;;;;;;4.00;4.00;;;;;20.93;19.35;101349.56;5055983;28;45450;-81
2022/04/04 10:51:17;;;;;;;;;4.00;4.00;;;;;20.49;18.22;101285.47;5055775;28;45414;-81
2022/04/04 10:54:09;;;;;;;;;3.67;3.00;;;;;21.65;18.38;101336.78;5055878;28;45382;-80
2022/04/04 10:56:46;;;;;;;;;3.00;3.00;;;;;21.06;18.10;101330.50;5052754;28;45299;-80
2022/04/04 10:59:21;;;;;;;;;4.00;4.00;;;;;20.99;18.52;101331.50;5055319;28;45395;-80
2022/04/04 11:01:58;;;;;;;;;3.33;2.33;;;;;21.09;18.24;101289.09;5054267;28;45410;-79
2022/04/04 11:04:29;;;;;;;;;2.00;2.00;;;;;20.68;18.65;101307.69;5055267;28;45401;-79
2022/04/04 11:07:41;;;;;;;;;7.00;3.67;;;;;21.48;18.03;101316.34;5055481;28;45505;-79
2022/04/04 11:10:08;;;;;;;;;3.67;3.00;;;;;21.39;18.09;101249.91;4993254;28;45453;-78
2022/04/04 11:12:56;;;;;;;;;4.67;3.00;;;;;22.26;17.76;101304.97;4993288;28;45564;-78
2022/04/04 11:15:42;;;;;;;;;2.00;2.00;;;;;21.82;17.88;101298.66;4993015;28;45903;-78
2022/04/04 11:18:09;;;;;;;;;3.33;3.33;;;;;20.43;18.63;101304.41;4992873;28;45341;-79